createdAt,value
2022-12-20T00:01:32.245Z,6.40
2022-12-20T00:04:05.543Z,6.30
2022-12-20T00:06:34.764Z,6.20
2022-12-20T00:09:04.183Z,6.20
2022-12-20T00:11:30.863Z,6.10
2022-12-20T00:13:58.377Z,6.20
2022-12-20T00:16:27.643Z,6.10
2022-12-20T00:18:57.291Z,6.10
2022-12-20T00:21:24.580Z,6.00
2022-12-20T00:23:52.701Z,6.00
2022-12-20T00:26:21.839Z,5.90
2022-12-20T00:28:49.255Z,5.90
2022-12-20T00:31:17.866Z,5.80
2022-12-20T00:33:50.359Z,5.70
2022-12-20T00:36:18.170Z,5.80
2022-12-20T00:38:46.627Z,5.90
2022-12-20T00:41:15.789Z,5.90
2022-12-20T00:43:42.766Z,6.00
2022-12-20T00:46:11.961Z,6.00
2022-12-20T00:48:38.856Z,6.10
2022-12-20T00:51:12.144Z,6.10
2022-12-20T00:53:39.952Z,6.10
2022-12-20T00:56:07.880Z,6.10
2022-12-20T00:58:37.246Z,6.10
2022-12-20T01:01:06.767Z,6.10
2022-12-20T01:03:34.108Z,6.10
2022-12-20T01:06:02.601Z,6.20
2022-12-20T01:08:30.972Z,6.30
2022-12-20T01:11:06.222Z,6.30
2022-12-20T01:13:34.330Z,6.10
2022-12-20T01:16:09.182Z,6.10
2022-12-20T01:18:35.863Z,6.20
2022-12-20T01:21:11.474Z,6.20
2022-12-20T01:23:38.592Z,6.10
2022-12-20T01:26:09.181Z,6.20
2022-12-20T01:28:37.623Z,6.20
2022-12-20T01:31:12.136Z,6.20
2022-12-20T01:33:38.962Z,6.10
2022-12-20T01:36:08.591Z,6.10
2022-12-20T01:38:35.625Z,6.10
2022-12-20T01:41:03.827Z,6.10
2022-12-20T01:43:45.894Z,6.10
2022-12-20T01:46:12.651Z,6.20
2022-12-20T01:48:40.543Z,6.20
2022-12-20T01:51:07.227Z,6.20
2022-12-20T01:53:33.856Z,6.30
2022-12-20T01:56:03.864Z,6.40
2022-12-20T01:58:30.943Z,6.40
2022-12-20T02:00:57.797Z,6.40
2022-12-20T02:03:25.539Z,6.60
2022-12-20T02:05:55.284Z,6.60
2022-12-20T02:08:21.956Z,6.60
2022-12-20T02:11:17.771Z,6.70
2022-12-20T02:14:10.705Z,6.80
2022-12-20T02:16:49.344Z,6.80
2022-12-20T02:19:30.577Z,6.90
2022-12-20T02:22:26.286Z,6.80
2022-12-20T02:25:20.590Z,6.90
2022-12-20T02:27:58.966Z,6.90
2022-12-20T02:30:33.143Z,6.80
2022-12-20T02:33:03.328Z,6.70
2022-12-20T02:35:34.626Z,6.80
2022-12-20T02:38:23.367Z,6.80
2022-12-20T02:40:54.877Z,6.90
2022-12-20T02:43:41.269Z,6.90
2022-12-20T02:46:09.445Z,6.80
2022-12-20T02:48:38.380Z,6.70
2022-12-20T02:51:06.330Z,6.70
2022-12-20T02:53:34.937Z,6.80
2022-12-20T02:56:16.439Z,6.90
2022-12-20T02:59:09.344Z,7.00
2022-12-20T03:01:40.727Z,7.20
2022-12-20T03:04:08.685Z,7.20
2022-12-20T03:06:35.382Z,7.30
2022-12-20T03:09:02.055Z,7.30
2022-12-20T03:11:28.699Z,7.30
2022-12-20T03:13:55.400Z,7.30
2022-12-20T03:16:22.086Z,7.30
2022-12-20T03:18:48.782Z,7.30
2022-12-20T03:21:15.388Z,7.50
2022-12-20T03:23:42.102Z,7.50
2022-12-20T03:26:08.755Z,7.40
2022-12-20T03:28:35.453Z,7.50
2022-12-20T03:31:02.233Z,7.50
2022-12-20T03:33:28.939Z,7.50
2022-12-20T03:35:55.596Z,7.50
2022-12-20T03:38:22.173Z,7.60
2022-12-20T03:40:48.874Z,7.60
2022-12-20T03:43:15.479Z,7.50
2022-12-20T03:45:42.081Z,7.50
2022-12-20T03:48:08.990Z,7.50
2022-12-20T03:50:36.802Z,7.60
2022-12-20T03:53:03.538Z,7.60
2022-12-20T03:55:30.185Z,7.60
2022-12-20T03:57:56.829Z,7.80
2022-12-20T04:00:23.477Z,7.80
2022-12-20T04:02:50.309Z,7.90
2022-12-20T04:05:17.167Z,7.90
2022-12-20T04:07:45.213Z,8.00
2022-12-20T04:10:12.204Z,8.00
2022-12-20T04:12:38.847Z,8.00
2022-12-20T04:15:06.037Z,8.00
2022-12-20T04:17:32.641Z,8.00
2022-12-20T04:20:18.614Z,7.90
2022-12-20T04:22:49.884Z,8.00
2022-12-20T04:25:19.387Z,7.90
2022-12-20T04:27:45.972Z,7.90
2022-12-20T04:30:13.514Z,7.80
2022-12-20T04:32:40.092Z,7.80
2022-12-20T04:35:07.277Z,7.80
2022-12-20T04:37:33.861Z,7.80
2022-12-20T04:40:00.504Z,7.70
2022-12-20T04:42:27.389Z,7.70
2022-12-20T04:44:54.043Z,7.70
2022-12-20T04:47:20.698Z,7.70
2022-12-20T04:49:47.315Z,7.60
2022-12-20T04:52:32.461Z,7.60
2022-12-20T04:54:59.081Z,7.60
2022-12-20T04:57:25.689Z,7.50
2022-12-20T04:59:52.885Z,7.50
2022-12-20T05:02:19.501Z,7.40
2022-12-20T05:04:46.236Z,7.40
2022-12-20T05:07:13.138Z,7.40
2022-12-20T05:09:39.827Z,7.40
2022-12-20T05:12:06.651Z,7.30
2022-12-20T05:14:33.534Z,7.30
2022-12-20T05:17:00.107Z,7.30
2022-12-20T05:19:26.807Z,7.30
2022-12-20T05:22:12.266Z,7.30
2022-12-20T05:24:57.823Z,7.30
2022-12-20T05:27:24.398Z,7.30
2022-12-20T05:29:50.993Z,7.30
2022-12-20T05:32:17.547Z,7.30
2022-12-20T05:34:44.191Z,7.30
2022-12-20T05:37:10.936Z,7.40
2022-12-20T05:39:37.550Z,7.40
2022-12-20T05:42:04.385Z,7.40
2022-12-20T05:44:30.959Z,7.50
2022-12-20T05:46:57.638Z,7.50
2022-12-20T05:49:24.673Z,7.50
2022-12-20T05:51:51.260Z,7.50
2022-12-20T05:54:18.046Z,7.60
2022-12-20T05:56:44.697Z,7.60
2022-12-20T05:59:11.299Z,7.60
2022-12-20T06:01:37.985Z,7.70
2022-12-20T06:04:04.965Z,7.70
2022-12-20T06:06:31.689Z,7.80
2022-12-20T06:08:58.283Z,7.70
2022-12-20T06:11:29.826Z,7.70
2022-12-20T06:13:57.128Z,7.80
2022-12-20T06:16:23.744Z,7.80
2022-12-20T06:18:50.388Z,7.80
2022-12-20T06:21:18.024Z,7.80
2022-12-20T06:23:44.659Z,7.80
2022-12-20T06:26:11.318Z,7.80
2022-12-20T06:28:42.825Z,7.80
2022-12-20T06:31:11.073Z,7.80
2022-12-20T06:33:37.831Z,7.80
2022-12-20T06:36:04.738Z,7.80
2022-12-20T06:38:31.571Z,7.80
2022-12-20T06:40:58.160Z,7.90
2022-12-20T06:43:24.744Z,7.90
2022-12-20T06:45:51.431Z,7.80
2022-12-20T06:48:18.024Z,7.80
2022-12-20T06:50:47.028Z,7.80
2022-12-20T06:53:16.523Z,7.80
2022-12-20T06:55:43.166Z,7.80
2022-12-20T06:58:09.767Z,7.80
2022-12-20T07:00:36.463Z,7.80
2022-12-20T07:03:03.269Z,7.80
2022-12-20T07:05:29.982Z,7.80
2022-12-20T07:07:56.554Z,7.80
2022-12-20T07:10:23.165Z,7.80
2022-12-20T07:12:50.091Z,7.80
2022-12-20T07:15:17.103Z,7.80
2022-12-20T07:17:44.039Z,7.70
2022-12-20T07:20:14.060Z,7.70
2022-12-20T07:22:41.348Z,7.70
2022-12-20T07:25:08.386Z,7.60
2022-12-20T07:27:35.009Z,7.70
2022-12-20T07:30:01.649Z,7.70
2022-12-20T07:32:28.303Z,7.60
2022-12-20T07:34:54.878Z,7.70
2022-12-20T07:37:21.515Z,7.70
2022-12-20T07:39:48.119Z,7.70
2022-12-20T07:42:15.062Z,7.80
2022-12-20T07:44:42.826Z,7.80
2022-12-20T07:47:10.313Z,7.80
2022-12-20T07:49:37.202Z,7.80
2022-12-20T07:52:05.715Z,7.80
2022-12-20T07:54:36.838Z,7.90
2022-12-20T07:57:13.909Z,7.90
2022-12-20T07:59:45.209Z,7.90
2022-12-20T08:02:17.552Z,7.90
2022-12-20T08:04:44.767Z,7.90
2022-12-20T08:07:11.933Z,8.00
2022-12-20T08:09:41.842Z,8.00
2022-12-20T08:12:10.384Z,8.10
2022-12-20T08:14:37.688Z,8.10
2022-12-20T08:17:04.368Z,8.10
2022-12-20T08:19:32.904Z,8.10
2022-12-20T08:21:59.697Z,8.20
2022-12-20T08:24:26.297Z,8.20
2022-12-20T08:26:52.947Z,8.20
2022-12-20T08:29:19.532Z,8.30
2022-12-20T08:31:50.319Z,8.40
2022-12-20T08:34:18.089Z,8.40
2022-12-20T08:36:44.888Z,8.40
2022-12-20T08:39:11.668Z,8.50
2022-12-20T08:41:38.392Z,8.50
2022-12-20T08:44:06.160Z,8.50
2022-12-20T08:46:32.925Z,8.60
2022-12-20T08:48:59.616Z,8.60
2022-12-20T08:51:26.282Z,8.60
2022-12-20T08:53:53.082Z,8.70
2022-12-20T08:56:20.048Z,8.70
2022-12-20T08:58:47.109Z,8.70
2022-12-20T09:01:16.424Z,8.70
2022-12-20T09:03:43.867Z,8.70
2022-12-20T09:06:13.432Z,8.80
2022-12-20T09:08:40.798Z,8.80
2022-12-20T09:11:13.017Z,8.90
2022-12-20T09:13:44.124Z,9.00
2022-12-20T09:16:13.353Z,9.00
2022-12-20T09:18:40.185Z,9.10
2022-12-20T09:21:07.884Z,9.10
2022-12-20T09:23:36.160Z,9.20
2022-12-20T09:26:07.952Z,9.20
2022-12-20T09:28:34.813Z,9.30
2022-12-20T09:31:03.885Z,9.30
2022-12-20T09:33:32.353Z,9.30
2022-12-20T09:36:00.159Z,9.40
2022-12-20T09:38:27.272Z,9.30
2022-12-20T09:40:56.342Z,9.40
2022-12-20T09:43:23.548Z,9.50
2022-12-20T09:45:56.644Z,9.50
2022-12-20T09:48:26.235Z,9.60
2022-12-20T09:51:17.362Z,9.60
2022-12-20T09:54:16.162Z,9.60
2022-12-20T09:57:05.263Z,9.60
2022-12-20T09:59:40.448Z,9.70
2022-12-20T10:02:43.980Z,9.80
2022-12-20T10:04:59.061Z,9.80
2022-12-20T10:07:50.610Z,9.90
2022-12-20T10:10:33.838Z,10.00
2022-12-20T10:13:46.619Z,10.20
2022-12-20T10:16:37.580Z,10.30
2022-12-20T10:19:23.086Z,10.40
2022-12-20T10:21:56.875Z,10.50
2022-12-20T10:24:26.229Z,10.40
2022-12-20T10:26:52.855Z,10.40
2022-12-20T10:29:21.172Z,10.40
2022-12-20T10:31:59.032Z,10.40
2022-12-20T10:34:27.842Z,10.50
2022-12-20T10:37:12.759Z,10.50
2022-12-20T10:39:43.764Z,10.60
2022-12-20T10:42:31.572Z,10.60
2022-12-20T10:44:58.561Z,10.50
2022-12-20T10:47:46.305Z,10.50
2022-12-20T10:50:21.963Z,10.50
2022-12-20T10:53:09.298Z,10.50
2022-12-20T10:55:41.981Z,10.50
2022-12-20T10:58:27.187Z,10.60
2022-12-20T11:01:12.650Z,10.60
2022-12-20T11:03:54.224Z,10.70
2022-12-20T11:06:23.514Z,10.70
2022-12-20T11:08:55.377Z,10.70
2022-12-20T11:11:26.429Z,10.80
2022-12-20T11:13:53.976Z,10.80
2022-12-20T11:16:29.924Z,11.00
2022-12-20T11:19:00.905Z,11.10
2022-12-20T11:21:36.235Z,11.10
2022-12-20T11:24:36.204Z,11.10
2022-12-20T11:27:15.122Z,11.10
2022-12-20T11:29:42.091Z,11.10
2022-12-20T11:32:29.488Z,11.00
2022-12-20T11:35:08.016Z,10.90
2022-12-20T11:37:46.279Z,10.90
2022-12-20T11:40:32.384Z,10.90
2022-12-20T11:43:14.881Z,10.90
2022-12-20T11:45:41.362Z,10.90
2022-12-20T11:48:52.122Z,11.00
2022-12-20T11:51:26.696Z,10.90
2022-12-20T11:54:17.260Z,10.90
2022-12-20T11:56:47.003Z,10.90
2022-12-20T11:59:19.080Z,10.90
2022-12-20T12:02:12.636Z,10.90
2022-12-20T12:04:46.294Z,10.80
2022-12-20T12:07:21.919Z,10.80
2022-12-20T12:10:12.568Z,10.80
2022-12-20T12:12:48.491Z,10.80
2022-12-20T12:15:16.899Z,10.80
2022-12-20T12:17:46.660Z,10.80
2022-12-20T12:20:44.703Z,10.80
2022-12-20T12:23:29.806Z,10.70
2022-12-20T12:25:59.542Z,10.70
2022-12-20T12:28:26.150Z,10.70
2022-12-20T12:31:03.760Z,10.70
2022-12-20T12:33:55.702Z,10.70
2022-12-20T12:37:10.443Z,10.70
2022-12-20T12:40:16.206Z,10.70
2022-12-20T12:43:07.683Z,10.70
2022-12-20T12:45:48.199Z,10.60
2022-12-20T12:48:32.367Z,10.60
2022-12-20T12:50:59.779Z,10.50
2022-12-20T12:53:37.658Z,10.50
2022-12-20T12:56:43.191Z,10.50
2022-12-20T12:59:16.742Z,10.50
2022-12-20T13:01:48.255Z,10.50
2022-12-20T13:04:20.645Z,10.50
2022-12-20T13:06:47.182Z,10.40
2022-12-20T13:09:25.548Z,10.40
2022-12-20T13:12:00.321Z,10.30
2022-12-20T13:14:28.886Z,10.30
2022-12-20T13:17:25.876Z,10.30
2022-12-20T13:19:55.376Z,10.20
2022-12-20T13:22:26.876Z,10.20
2022-12-20T13:24:58.563Z,10.20
2022-12-20T13:27:31.213Z,10.20
2022-12-20T13:30:13.564Z,10.10
2022-12-20T13:32:49.187Z,10.20
2022-12-20T13:35:24.637Z,10.10
2022-12-20T13:37:57.903Z,10.10
2022-12-20T13:40:38.773Z,10.00
2022-12-20T13:43:20.685Z,10.00
2022-12-20T13:46:13.591Z,10.00
2022-12-20T13:48:46.359Z,10.00
2022-12-20T13:51:18.588Z,10.00
2022-12-20T13:53:59.360Z,10.00
2022-12-20T13:56:32.239Z,10.00
2022-12-20T13:59:12.979Z,10.00
2022-12-20T14:01:43.476Z,9.90
2022-12-20T14:04:11.036Z,9.80
2022-12-20T14:06:38.007Z,9.80
2022-12-20T14:09:05.702Z,9.80
2022-12-20T14:11:32.355Z,9.70
2022-12-20T14:14:01.511Z,9.70
2022-12-20T14:16:30.754Z,9.70
2022-12-20T14:18:57.359Z,9.60
2022-12-20T14:21:25.921Z,9.60
2022-12-20T14:23:55.329Z,9.60
2022-12-20T14:26:44.444Z,9.60
2022-12-20T14:29:15.507Z,9.60
2022-12-20T14:31:49.725Z,9.60
2022-12-20T14:34:24.533Z,9.70
2022-12-20T14:37:30.606Z,9.70
2022-12-20T14:40:14.719Z,9.70
2022-12-20T14:42:41.423Z,9.80
2022-12-20T14:45:10.789Z,9.80
2022-12-20T14:47:38.826Z,9.80
2022-12-20T14:50:17.054Z,9.70
2022-12-20T14:52:44.240Z,9.60
2022-12-20T14:55:27.909Z,9.60
2022-12-20T14:57:56.941Z,9.50
2022-12-20T15:00:27.886Z,9.50
2022-12-20T15:03:01.067Z,9.50
2022-12-20T15:05:42.747Z,9.50
2022-12-20T15:08:24.192Z,9.40
2022-12-20T15:11:08.905Z,9.50
2022-12-20T15:13:41.990Z,9.40
2022-12-20T15:16:18.466Z,9.40
2022-12-20T15:18:46.181Z,9.30
2022-12-20T15:21:15.405Z,9.40
2022-12-20T15:23:47.563Z,9.40
2022-12-20T15:26:19.650Z,9.40
2022-12-20T15:28:46.643Z,9.40
2022-12-20T15:31:16.373Z,9.40
2022-12-20T15:33:44.281Z,9.50
2022-12-20T15:36:20.907Z,9.50
2022-12-20T15:39:11.371Z,9.60
2022-12-20T15:41:34.892Z,9.50
2022-12-20T15:44:22.021Z,9.50
2022-12-20T15:46:48.773Z,9.50
2022-12-20T15:49:21.221Z,9.50
2022-12-20T15:51:48.738Z,9.50
2022-12-20T15:54:33.700Z,9.50
2022-12-20T15:57:07.365Z,9.40
2022-12-20T16:00:04.061Z,9.40
2022-12-20T16:02:22.655Z,9.40
2022-12-20T16:04:50.419Z,9.40
2022-12-20T16:07:17.036Z,9.40
2022-12-20T16:09:44.052Z,9.40
2022-12-20T16:12:25.212Z,9.40
2022-12-20T16:14:51.802Z,9.40
2022-12-20T16:17:18.374Z,9.50
2022-12-20T16:19:45.776Z,9.50
2022-12-20T16:22:23.561Z,9.60
2022-12-20T16:24:50.453Z,9.70
2022-12-20T16:27:17.228Z,9.70
2022-12-20T16:29:43.818Z,9.70
2022-12-20T16:32:23.802Z,9.70
2022-12-20T16:34:50.972Z,9.80
2022-12-20T16:37:17.920Z,9.80
2022-12-20T16:39:44.968Z,9.70
2022-12-20T16:42:16.880Z,9.70
2022-12-20T16:44:45.155Z,9.70
2022-12-20T16:47:13.371Z,9.70
2022-12-20T16:49:45.795Z,9.80
2022-12-20T16:52:18.781Z,9.80
2022-12-20T16:54:45.361Z,9.80
2022-12-20T16:57:12.068Z,9.80
2022-12-20T16:59:38.695Z,9.70
2022-12-20T17:02:23.025Z,9.70
2022-12-20T17:04:49.721Z,9.70
2022-12-20T17:07:16.265Z,9.60
2022-12-20T17:12:27.190Z,9.60
2022-12-20T17:14:53.849Z,9.70
2022-12-20T17:17:20.528Z,9.70
2022-12-20T17:19:47.469Z,9.60
2022-12-20T17:22:22.921Z,9.60
2022-12-20T17:24:49.466Z,9.60
2022-12-20T17:27:16.071Z,9.50
2022-12-20T17:29:42.931Z,9.50
2022-12-20T17:32:20.538Z,9.50
2022-12-20T17:34:47.684Z,9.50
2022-12-20T17:37:14.373Z,9.40
2022-12-20T17:39:40.927Z,9.40
2022-12-20T17:42:12.279Z,9.40
2022-12-20T17:44:38.855Z,9.40
2022-12-20T17:47:06.348Z,9.30
2022-12-20T17:49:33.553Z,9.30
2022-12-20T17:52:00.165Z,9.40
2022-12-20T17:54:32.110Z,9.60
2022-12-20T17:57:03.531Z,9.60
2022-12-20T17:59:30.542Z,9.60
2022-12-20T18:01:57.370Z,9.70
2022-12-20T18:04:24.154Z,9.70
2022-12-20T18:06:52.040Z,9.80
2022-12-20T18:09:21.566Z,9.70
2022-12-20T18:11:48.684Z,9.70
2022-12-20T18:14:16.119Z,9.70
2022-12-20T18:16:43.132Z,9.70
2022-12-20T18:19:16.537Z,9.70
2022-12-20T18:21:43.508Z,9.80
2022-12-20T18:24:15.789Z,9.70
2022-12-20T18:26:42.895Z,9.70
2022-12-20T18:29:10.910Z,9.70
2022-12-20T18:31:37.832Z,9.70
2022-12-20T18:34:04.816Z,9.70
2022-12-20T18:36:34.554Z,9.70
2022-12-20T18:39:04.420Z,9.70
2022-12-20T18:41:31.509Z,9.60
2022-12-20T18:44:01.003Z,9.60
2022-12-20T18:46:28.666Z,9.60
2022-12-20T18:48:56.555Z,9.50
2022-12-20T18:51:28.826Z,9.40
2022-12-20T18:53:57.241Z,9.30
2022-12-20T18:56:32.914Z,9.20
2022-12-20T18:59:08.192Z,9.10
2022-12-20T19:01:37.889Z,9.00
2022-12-20T19:04:06.080Z,8.90
2022-12-20T19:06:33.078Z,8.90
2022-12-20T19:09:00.605Z,8.80
2022-12-20T19:11:27.638Z,8.70
2022-12-20T19:13:54.985Z,8.70
2022-12-20T19:16:24.989Z,8.70
2022-12-20T19:18:52.067Z,8.70
2022-12-20T19:21:22.111Z,8.70
2022-12-20T19:23:51.392Z,8.70
2022-12-20T19:26:19.995Z,8.70
2022-12-20T19:28:47.180Z,8.70
2022-12-20T19:31:21.521Z,8.60
2022-12-20T19:33:50.657Z,8.60
2022-12-20T19:36:20.337Z,8.60
2022-12-20T19:38:52.583Z,8.50
2022-12-20T19:41:19.785Z,8.50
2022-12-20T19:43:50.436Z,8.50
2022-12-20T19:46:17.902Z,8.40
2022-12-20T19:48:44.538Z,8.40
2022-12-20T19:51:13.423Z,8.40
2022-12-20T19:53:43.113Z,8.40
2022-12-20T19:56:10.217Z,8.40
2022-12-20T19:58:37.906Z,8.30
2022-12-20T20:01:07.151Z,8.30
2022-12-20T20:03:34.833Z,8.40
2022-12-20T20:06:01.858Z,8.30
2022-12-20T20:08:28.613Z,8.30
2022-12-20T20:10:57.354Z,8.20
2022-12-20T20:13:24.829Z,8.20
2022-12-20T20:16:02.902Z,8.20
2022-12-20T20:18:30.729Z,8.20
2022-12-20T20:20:57.376Z,8.20
2022-12-20T20:23:24.638Z,8.30
2022-12-20T20:25:56.675Z,8.30
2022-12-20T20:28:32.367Z,8.20
2022-12-20T20:30:59.812Z,8.20
2022-12-20T20:33:26.472Z,8.20
2022-12-20T20:35:55.093Z,8.20
2022-12-20T20:38:21.891Z,8.20
2022-12-20T20:40:48.795Z,8.20
2022-12-20T20:43:15.499Z,8.20
2022-12-20T20:45:42.148Z,8.20
2022-12-20T20:48:08.896Z,8.20
2022-12-20T20:50:35.546Z,8.20
2022-12-20T20:53:02.459Z,8.20
2022-12-20T20:55:29.029Z,8.10
2022-12-20T20:57:55.592Z,8.10
2022-12-20T21:00:22.358Z,8.10
2022-12-20T21:02:49.615Z,8.10
2022-12-20T21:06:06.148Z,8.10
2022-12-20T21:08:04.216Z,8.10
2022-12-20T21:10:31.101Z,8.10
2022-12-20T21:12:57.721Z,8.10
2022-12-20T21:15:27.818Z,8.10
2022-12-20T21:17:54.900Z,8.10
2022-12-20T21:20:25.933Z,8.10
2022-12-20T21:22:53.363Z,8.10
2022-12-20T21:25:20.066Z,8.10
2022-12-20T21:27:46.647Z,8.10
2022-12-20T21:30:13.847Z,8.20
2022-12-20T21:32:40.395Z,8.10
2022-12-20T21:35:07.191Z,8.10
2022-12-20T21:37:33.854Z,8.10
2022-12-20T21:40:00.417Z,8.20
2022-12-20T21:42:26.962Z,8.20
2022-12-20T21:44:53.593Z,8.20
2022-12-20T21:47:20.348Z,8.20
2022-12-20T21:49:47.002Z,8.10
2022-12-20T21:52:13.702Z,8.10
2022-12-20T21:54:40.487Z,8.10
2022-12-20T21:57:07.070Z,8.10
2022-12-20T21:59:33.678Z,8.10
2022-12-20T22:02:00.594Z,8.00
2022-12-20T22:04:27.380Z,8.20
2022-12-20T22:06:54.390Z,8.20
2022-12-20T22:09:21.000Z,8.10
2022-12-20T22:11:48.575Z,8.10
2022-12-20T22:14:15.857Z,8.10
2022-12-20T22:16:42.853Z,8.10
2022-12-20T22:19:15.503Z,8.10
2022-12-20T22:21:42.289Z,8.10
2022-12-20T22:24:09.395Z,8.10
2022-12-20T22:26:36.818Z,8.10
2022-12-20T22:29:05.787Z,8.10
2022-12-20T22:31:32.995Z,8.10
2022-12-20T22:34:00.217Z,8.10
2022-12-20T22:36:27.702Z,8.10
2022-12-20T22:38:55.661Z,8.10
2022-12-20T22:41:28.801Z,8.20
2022-12-20T22:43:57.210Z,8.20
2022-12-20T22:46:24.121Z,8.20
2022-12-20T22:48:50.941Z,8.30
2022-12-20T22:51:20.152Z,8.50
2022-12-20T22:53:47.695Z,8.60
2022-12-20T22:56:16.586Z,8.70
2022-12-20T22:58:43.698Z,8.80
2022-12-20T23:01:13.595Z,8.80
2022-12-20T23:03:41.413Z,8.90
2022-12-20T23:06:12.182Z,8.90
2022-12-20T23:08:38.889Z,8.90
2022-12-20T23:11:31.925Z,9.00
2022-12-20T23:14:17.372Z,9.00
2022-12-20T23:16:44.267Z,9.00
2022-12-20T23:19:11.369Z,8.90
2022-12-20T23:21:56.399Z,8.90
2022-12-20T23:24:23.174Z,8.90
2022-12-20T23:26:49.847Z,8.90
2022-12-20T23:29:16.889Z,8.90
2022-12-20T23:31:43.508Z,8.90
2022-12-20T23:34:10.211Z,8.80
2022-12-20T23:36:37.278Z,8.80
2022-12-20T23:39:04.519Z,8.70
2022-12-20T23:41:31.251Z,8.60
2022-12-20T23:43:58.171Z,8.60
2022-12-20T23:46:25.326Z,8.50
2022-12-20T23:48:52.728Z,8.50
2022-12-20T23:51:20.473Z,8.50
2022-12-20T23:53:47.541Z,8.50
2022-12-20T23:56:17.970Z,8.40
2022-12-20T23:58:46.204Z,8.30
